sensor_id;sensor_type;location;lat;lon;timestamp;temperature;humidity
24802;DHT22;12898;50.520;12.152;2022-09-17T00:00:37;7.20;99.90
24802;DHT22;12898;50.520;12.152;2022-09-17T00:03:04;7.20;99.90
24802;DHT22;12898;50.520;12.152;2022-09-17T00:05:30;7.20;99.90
24802;DHT22;12898;50.520;12.152;2022-09-17T00:07:56;7.20;99.90
24802;DHT22;12898;50.520;12.152;2022-09-17T00:10:22;7.20;99.90
24802;DHT22;12898;50.520;12.152;2022-09-17T00:12:49;7.20;99.90
24802;DHT22;12898;50.520;12.152;2022-09-17T00:15:15;7.40;99.90
24802;DHT22;12898;50.520;12.152;2022-09-17T00:17:42;7.40;99.90
24802;DHT22;12898;50.520;12.152;2022-09-17T00:20:09;7.50;99.90
24802;DHT22;12898;50.520;12.152;2022-09-17T00:22:36;7.60;99.90
24802;DHT22;12898;50.520;12.152;2022-09-17T00:25:03;7.70;99.90
24802;DHT22;12898;50.520;12.152;2022-09-17T00:27:29;7.80;99.90
24802;DHT22;12898;50.520;12.152;2022-09-17T00:29:55;7.90;99.90
24802;DHT22;12898;50.520;12.152;2022-09-17T00:32:21;8.00;99.90
24802;DHT22;12898;50.520;12.152;2022-09-17T00:34:48;8.00;99.90
24802;DHT22;12898;50.520;12.152;2022-09-17T00:37:17;8.10;99.90
24802;DHT22;12898;50.520;12.152;2022-09-17T00:39:43;8.10;99.90
24802;DHT22;12898;50.520;12.152;2022-09-17T00:42:11;8.20;99.90
24802;DHT22;12898;50.520;12.152;2022-09-17T00:44:52;8.20;99.90
24802;DHT22;12898;50.520;12.152;2022-09-17T00:52:50;8.30;99.90
24802;DHT22;12898;50.520;12.152;2022-09-17T00:55:26;8.30;99.90
24802;DHT22;12898;50.520;12.152;2022-09-17T00:57:57;8.30;99.90
24802;DHT22;12898;50.520;12.152;2022-09-17T01:00:25;8.30;99.90
24802;DHT22;12898;50.520;12.152;2022-09-17T01:02:52;8.30;99.90
24802;DHT22;12898;50.520;12.152;2022-09-17T01:08:38;8.40;99.90
24802;DHT22;12898;50.520;12.152;2022-09-17T01:29:13;8.50;99.90
24802;DHT22;12898;50.520;12.152;2022-09-17T01:32:17;8.50;99.90
24802;DHT22;12898;50.520;12.152;2022-09-17T01:37:50;8.50;99.90
24802;DHT22;12898;50.520;12.152;2022-09-17T01:40:29;8.50;99.90
24802;DHT22;12898;50.520;12.152;2022-09-17T01:43:23;8.60;99.90
24802;DHT22;12898;50.520;12.152;2022-09-17T01:45:58;8.60;99.90
24802;DHT22;12898;50.520;12.152;2022-09-17T01:48:36;8.60;99.90
24802;DHT22;12898;50.520;12.152;2022-09-17T01:51:10;8.60;99.90
24802;DHT22;12898;50.520;12.152;2022-09-17T01:54:10;8.70;99.90
24802;DHT22;12898;50.520;12.152;2022-09-17T01:56:48;8.70;99.90
24802;DHT22;12898;50.520;12.152;2022-09-17T01:59:23;8.70;99.90
24802;DHT22;12898;50.520;12.152;2022-09-17T02:02:12;8.70;99.90
24802;DHT22;12898;50.520;12.152;2022-09-17T02:04:47;8.70;99.90
24802;DHT22;12898;50.520;12.152;2022-09-17T02:07:18;8.70;99.90
24802;DHT22;12898;50.520;12.152;2022-09-17T02:10:16;8.70;99.90
24802;DHT22;12898;50.520;12.152;2022-09-17T02:12:57;8.80;99.90
24802;DHT22;12898;50.520;12.152;2022-09-17T02:15:32;8.80;99.90
24802;DHT22;12898;50.520;12.152;2022-09-17T02:18:17;8.80;99.90
24802;DHT22;12898;50.520;12.152;2022-09-17T02:21:27;8.80;99.90
24802;DHT22;12898;50.520;12.152;2022-09-17T02:24:00;8.80;99.90
24802;DHT22;12898;50.520;12.152;2022-09-17T02:26:31;8.80;99.90
24802;DHT22;12898;50.520;12.152;2022-09-17T02:29:06;8.90;99.90
24802;DHT22;12898;50.520;12.152;2022-09-17T02:31:36;8.80;99.90
24802;DHT22;12898;50.520;12.152;2022-09-17T02:34:03;8.80;99.90
24802;DHT22;12898;50.520;12.152;2022-09-17T02:36:30;8.80;99.90
24802;DHT22;12898;50.520;12.152;2022-09-17T02:39:01;8.80;99.90
24802;DHT22;12898;50.520;12.152;2022-09-17T02:45:06;8.80;99.90
24802;DHT22;12898;50.520;12.152;2022-09-17T02:51:19;8.70;99.90
24802;DHT22;12898;50.520;12.152;2022-09-17T03:00:13;8.70;99.90
24802;DHT22;12898;50.520;12.152;2022-09-17T03:02:44;8.70;99.90
24802;DHT22;12898;50.520;12.152;2022-09-17T03:05:33;8.70;99.90
24802;DHT22;12898;50.520;12.152;2022-09-17T03:08:01;8.70;99.90
24802;DHT22;12898;50.520;12.152;2022-09-17T03:10:26;8.80;99.90
24802;DHT22;12898;50.520;12.152;2022-09-17T03:12:58;8.80;99.90
24802;DHT22;12898;50.520;12.152;2022-09-17T03:15:24;8.80;99.90
24802;DHT22;12898;50.520;12.152;2022-09-17T03:17:50;8.70;99.90
24802;DHT22;12898;50.520;12.152;2022-09-17T03:20:15;8.70;99.90
24802;DHT22;12898;50.520;12.152;2022-09-17T03:22:41;8.70;99.90
24802;DHT22;12898;50.520;12.152;2022-09-17T03:25:08;8.80;99.90
24802;DHT22;12898;50.520;12.152;2022-09-17T03:27:34;8.70;99.90
24802;DHT22;12898;50.520;12.152;2022-09-17T03:29:59;8.70;99.90
24802;DHT22;12898;50.520;12.152;2022-09-17T03:32:26;8.70;99.90
24802;DHT22;12898;50.520;12.152;2022-09-17T03:34:51;8.70;99.90
24802;DHT22;12898;50.520;12.152;2022-09-17T03:37:19;8.70;99.90
24802;DHT22;12898;50.520;12.152;2022-09-17T03:39:44;8.70;99.90
24802;DHT22;12898;50.520;12.152;2022-09-17T03:42:10;8.70;99.90
24802;DHT22;12898;50.520;12.152;2022-09-17T03:44:36;8.70;99.90
24802;DHT22;12898;50.520;12.152;2022-09-17T03:47:02;8.70;99.90
24802;DHT22;12898;50.520;12.152;2022-09-17T03:49:27;8.60;99.90
24802;DHT22;12898;50.520;12.152;2022-09-17T03:51:53;8.60;99.90
24802;DHT22;12898;50.520;12.152;2022-09-17T03:54:19;8.60;99.90
24802;DHT22;12898;50.520;12.152;2022-09-17T03:56:44;8.60;99.90
24802;DHT22;12898;50.520;12.152;2022-09-17T03:59:10;8.60;99.90
24802;DHT22;12898;50.520;12.152;2022-09-17T04:01:36;8.60;99.90
24802;DHT22;12898;50.520;12.152;2022-09-17T04:04:02;8.60;99.90
24802;DHT22;12898;50.520;12.152;2022-09-17T04:06:28;8.60;99.90
24802;DHT22;12898;50.520;12.152;2022-09-17T04:08:54;8.50;99.90
24802;DHT22;12898;50.520;12.152;2022-09-17T04:11:21;8.50;99.90
24802;DHT22;12898;50.520;12.152;2022-09-17T04:13:47;8.50;99.90
24802;DHT22;12898;50.520;12.152;2022-09-17T04:16:13;8.50;99.90
24802;DHT22;12898;50.520;12.152;2022-09-17T04:18:39;8.50;99.90
24802;DHT22;12898;50.520;12.152;2022-09-17T04:21:05;8.50;99.90
24802;DHT22;12898;50.520;12.152;2022-09-17T04:23:31;8.50;99.90
24802;DHT22;12898;50.520;12.152;2022-09-17T04:25:57;8.40;99.90
24802;DHT22;12898;50.520;12.152;2022-09-17T04:28:22;8.40;99.90
24802;DHT22;12898;50.520;12.152;2022-09-17T04:30:48;8.40;99.90
24802;DHT22;12898;50.520;12.152;2022-09-17T04:33:14;8.40;99.90
24802;DHT22;12898;50.520;12.152;2022-09-17T04:35:40;8.40;99.90
24802;DHT22;12898;50.520;12.152;2022-09-17T04:38:05;8.40;99.90
24802;DHT22;12898;50.520;12.152;2022-09-17T04:40:31;8.40;99.90
24802;DHT22;12898;50.520;12.152;2022-09-17T04:42:58;8.30;99.90
24802;DHT22;12898;50.520;12.152;2022-09-17T04:45:28;8.30;99.90
24802;DHT22;12898;50.520;12.152;2022-09-17T04:47:54;8.30;99.90
24802;DHT22;12898;50.520;12.152;2022-09-17T04:50:21;8.30;99.90
24802;DHT22;12898;50.520;12.152;2022-09-17T04:52:47;8.30;99.90
24802;DHT22;12898;50.520;12.152;2022-09-17T04:55:14;8.30;99.90
24802;DHT22;12898;50.520;12.152;2022-09-17T04:57:47;8.40;99.90
24802;DHT22;12898;50.520;12.152;2022-09-17T05:00:15;8.40;99.90
24802;DHT22;12898;50.520;12.152;2022-09-17T05:02:43;8.40;99.90
24802;DHT22;12898;50.520;12.152;2022-09-17T05:05:10;8.40;99.90
24802;DHT22;12898;50.520;12.152;2022-09-17T05:07:39;8.50;99.90
24802;DHT22;12898;50.520;12.152;2022-09-17T05:10:06;8.50;99.90
24802;DHT22;12898;50.520;12.152;2022-09-17T05:12:33;8.50;99.90
24802;DHT22;12898;50.520;12.152;2022-09-17T05:14:59;8.50;99.90
24802;DHT22;12898;50.520;12.152;2022-09-17T05:17:25;8.50;99.90
24802;DHT22;12898;50.520;12.152;2022-09-17T05:19:50;8.50;99.90
24802;DHT22;12898;50.520;12.152;2022-09-17T05:22:18;8.50;99.90
24802;DHT22;12898;50.520;12.152;2022-09-17T05:24:44;8.40;99.90
24802;DHT22;12898;50.520;12.152;2022-09-17T05:27:10;8.40;99.90
24802;DHT22;12898;50.520;12.152;2022-09-17T05:29:35;8.40;99.90
24802;DHT22;12898;50.520;12.152;2022-09-17T05:32:02;8.40;99.90
24802;DHT22;12898;50.520;12.152;2022-09-17T05:34:28;8.40;99.90
24802;DHT22;12898;50.520;12.152;2022-09-17T05:36:54;8.40;99.90
24802;DHT22;12898;50.520;12.152;2022-09-17T05:39:20;8.50;99.90
24802;DHT22;12898;50.520;12.152;2022-09-17T05:41:52;8.50;99.90
24802;DHT22;12898;50.520;12.152;2022-09-17T05:44:19;8.50;99.90
24802;DHT22;12898;50.520;12.152;2022-09-17T05:46:46;8.50;99.90
24802;DHT22;12898;50.520;12.152;2022-09-17T05:49:15;8.60;99.90
24802;DHT22;12898;50.520;12.152;2022-09-17T05:51:41;8.60;99.90
24802;DHT22;12898;50.520;12.152;2022-09-17T05:54:07;8.60;99.90
24802;DHT22;12898;50.520;12.152;2022-09-17T05:56:32;8.70;99.90
24802;DHT22;12898;50.520;12.152;2022-09-17T05:58:58;8.60;99.90
24802;DHT22;12898;50.520;12.152;2022-09-17T06:01:24;8.70;99.90
24802;DHT22;12898;50.520;12.152;2022-09-17T06:03:50;8.70;99.90
24802;DHT22;12898;50.520;12.152;2022-09-17T06:06:16;8.70;99.90
24802;DHT22;12898;50.520;12.152;2022-09-17T06:08:41;8.80;99.90
24802;DHT22;12898;50.520;12.152;2022-09-17T06:11:08;8.80;99.90
24802;DHT22;12898;50.520;12.152;2022-09-17T06:13:34;8.90;99.90
24802;DHT22;12898;50.520;12.152;2022-09-17T06:16:00;9.00;99.90
24802;DHT22;12898;50.520;12.152;2022-09-17T06:18:28;9.00;99.90
24802;DHT22;12898;50.520;12.152;2022-09-17T06:20:59;9.00;99.90
24802;DHT22;12898;50.520;12.152;2022-09-17T06:23:26;9.00;99.90
24802;DHT22;12898;50.520;12.152;2022-09-17T06:25:57;9.00;99.90
24802;DHT22;12898;50.520;12.152;2022-09-17T06:28:24;9.10;99.90
24802;DHT22;12898;50.520;12.152;2022-09-17T06:30:51;9.20;99.90
24802;DHT22;12898;50.520;12.152;2022-09-17T06:33:19;9.20;99.90
24802;DHT22;12898;50.520;12.152;2022-09-17T06:35:45;9.30;99.90
24802;DHT22;12898;50.520;12.152;2022-09-17T06:38:11;9.40;99.90
24802;DHT22;12898;50.520;12.152;2022-09-17T06:40:37;9.50;99.90
24802;DHT22;12898;50.520;12.152;2022-09-17T06:43:03;9.60;99.90
24802;DHT22;12898;50.520;12.152;2022-09-17T06:45:29;9.60;99.90
24802;DHT22;12898;50.520;12.152;2022-09-17T06:47:55;9.60;99.90
24802;DHT22;12898;50.520;12.152;2022-09-17T06:50:21;9.60;99.90
24802;DHT22;12898;50.520;12.152;2022-09-17T06:52:52;9.70;99.90
24802;DHT22;12898;50.520;12.152;2022-09-17T06:55:18;9.70;99.90
24802;DHT22;12898;50.520;12.152;2022-09-17T06:57:44;9.80;99.90
24802;DHT22;12898;50.520;12.152;2022-09-17T07:00:12;9.90;99.90
24802;DHT22;12898;50.520;12.152;2022-09-17T07:02:39;10.00;99.90
24802;DHT22;12898;50.520;12.152;2022-09-17T07:05:05;10.10;99.90
24802;DHT22;12898;50.520;12.152;2022-09-17T07:07:31;10.20;99.90
24802;DHT22;12898;50.520;12.152;2022-09-17T07:09:59;10.20;99.90
24802;DHT22;12898;50.520;12.152;2022-09-17T07:12:24;10.20;99.90
24802;DHT22;12898;50.520;12.152;2022-09-17T07:14:50;10.20;99.90
24802;DHT22;12898;50.520;12.152;2022-09-17T07:17:17;10.20;99.90
24802;DHT22;12898;50.520;12.152;2022-09-17T07:19:42;10.20;99.90
24802;DHT22;12898;50.520;12.152;2022-09-17T07:22:08;10.10;99.90
24802;DHT22;12898;50.520;12.152;2022-09-17T07:24:34;10.20;99.90
24802;DHT22;12898;50.520;12.152;2022-09-17T07:27:00;10.10;99.90
24802;DHT22;12898;50.520;12.152;2022-09-17T07:29:26;10.20;99.90
24802;DHT22;12898;50.520;12.152;2022-09-17T07:31:53;10.20;99.90
24802;DHT22;12898;50.520;12.152;2022-09-17T07:34:19;10.20;99.90
24802;DHT22;12898;50.520;12.152;2022-09-17T07:36:44;10.20;99.90
24802;DHT22;12898;50.520;12.152;2022-09-17T07:39:10;10.20;99.90
24802;DHT22;12898;50.520;12.152;2022-09-17T07:41:38;10.20;99.90
24802;DHT22;12898;50.520;12.152;2022-09-17T07:44:04;10.20;99.90
24802;DHT22;12898;50.520;12.152;2022-09-17T07:46:32;10.10;99.90
24802;DHT22;12898;50.520;12.152;2022-09-17T07:48:58;10.10;99.90
24802;DHT22;12898;50.520;12.152;2022-09-17T07:51:25;10.20;99.90
24802;DHT22;12898;50.520;12.152;2022-09-17T07:53:55;10.20;99.90
24802;DHT22;12898;50.520;12.152;2022-09-17T07:56:24;10.20;99.90
24802;DHT22;12898;50.520;12.152;2022-09-17T07:58:50;10.20;99.90
24802;DHT22;12898;50.520;12.152;2022-09-17T08:01:17;10.20;99.90
24802;DHT22;12898;50.520;12.152;2022-09-17T08:03:50;10.30;99.90
24802;DHT22;12898;50.520;12.152;2022-09-17T08:06:20;10.40;99.90
24802;DHT22;12898;50.520;12.152;2022-09-17T08:08:47;10.50;99.90
24802;DHT22;12898;50.520;12.152;2022-09-17T08:11:24;10.60;99.90
24802;DHT22;12898;50.520;12.152;2022-09-17T08:13:52;10.60;99.90
24802;DHT22;12898;50.520;12.152;2022-09-17T08:16:19;10.70;99.90
24802;DHT22;12898;50.520;12.152;2022-09-17T08:18:46;10.80;99.90
24802;DHT22;12898;50.520;12.152;2022-09-17T08:21:16;11.00;99.90
24802;DHT22;12898;50.520;12.152;2022-09-17T08:23:43;11.10;99.90
24802;DHT22;12898;50.520;12.152;2022-09-17T08:26:17;11.10;99.90
24802;DHT22;12898;50.520;12.152;2022-09-17T08:28:54;11.30;99.90
24802;DHT22;12898;50.520;12.152;2022-09-17T08:31:22;11.60;99.90
24802;DHT22;12898;50.520;12.152;2022-09-17T08:33:49;11.90;99.90
24802;DHT22;12898;50.520;12.152;2022-09-17T08:36:16;12.10;99.90
24802;DHT22;12898;50.520;12.152;2022-09-17T08:38:43;12.20;99.90
24802;DHT22;12898;50.520;12.152;2022-09-17T08:46:33;12.10;99.90
24802;DHT22;12898;50.520;12.152;2022-09-17T09:00:25;12.50;99.90
24802;DHT22;12898;50.520;12.152;2022-09-17T09:03:30;12.40;99.90
24802;DHT22;12898;50.520;12.152;2022-09-17T09:06:14;12.40;99.90
24802;DHT22;12898;50.520;12.152;2022-09-17T09:08:45;12.30;99.90
24802;DHT22;12898;50.520;12.152;2022-09-17T09:11:17;12.40;99.90
24802;DHT22;12898;50.520;12.152;2022-09-17T09:16:42;12.60;99.90
24802;DHT22;12898;50.520;12.152;2022-09-17T09:19:41;12.80;99.90
24802;DHT22;12898;50.520;12.152;2022-09-17T09:27:45;13.10;99.90
24802;DHT22;12898;50.520;12.152;2022-09-17T09:30:15;13.00;99.90
24802;DHT22;12898;50.520;12.152;2022-09-17T09:35:26;12.60;99.90
24802;DHT22;12898;50.520;12.152;2022-09-17T09:41:16;13.00;99.90
24802;DHT22;12898;50.520;12.152;2022-09-17T09:43:47;13.20;99.90
24802;DHT22;12898;50.520;12.152;2022-09-17T09:49:17;13.20;99.90
24802;DHT22;12898;50.520;12.152;2022-09-17T09:58:30;12.80;99.90
24802;DHT22;12898;50.520;12.152;2022-09-17T10:01:00;13.30;99.90
24802;DHT22;12898;50.520;12.152;2022-09-17T10:03:29;13.80;99.90
24802;DHT22;12898;50.520;12.152;2022-09-17T10:06:01;14.20;99.90
24802;DHT22;12898;50.520;12.152;2022-09-17T10:08:35;14.40;99.90
24802;DHT22;12898;50.520;12.152;2022-09-17T10:11:20;14.20;99.90
24802;DHT22;12898;50.520;12.152;2022-09-17T10:13:47;13.90;99.90
24802;DHT22;12898;50.520;12.152;2022-09-17T10:16:21;13.70;99.90
24802;DHT22;12898;50.520;12.152;2022-09-17T10:21:42;12.80;99.90
24802;DHT22;12898;50.520;12.152;2022-09-17T10:24:26;12.90;99.90
24802;DHT22;12898;50.520;12.152;2022-09-17T10:27:12;13.00;99.90
24802;DHT22;12898;50.520;12.152;2022-09-17T10:29:47;13.00;99.90
24802;DHT22;12898;50.520;12.152;2022-09-17T10:32:19;13.30;99.90
24802;DHT22;12898;50.520;12.152;2022-09-17T10:35:05;13.70;99.90
24802;DHT22;12898;50.520;12.152;2022-09-17T10:40:32;13.80;99.90
24802;DHT22;12898;50.520;12.152;2022-09-17T10:45:38;13.30;99.90
24802;DHT22;12898;50.520;12.152;2022-09-17T10:48:14;13.30;99.90
24802;DHT22;12898;50.520;12.152;2022-09-17T10:50:49;13.50;99.90
24802;DHT22;12898;50.520;12.152;2022-09-17T10:53:18;13.50;99.90
24802;DHT22;12898;50.520;12.152;2022-09-17T10:56:05;13.50;99.90
24802;DHT22;12898;50.520;12.152;2022-09-17T11:02:17;13.50;99.90
24802;DHT22;12898;50.520;12.152;2022-09-17T11:13:45;15.10;99.90
24802;DHT22;12898;50.520;12.152;2022-09-17T11:16:20;15.00;99.90
24802;DHT22;12898;50.520;12.152;2022-09-17T11:19:24;14.60;99.90
24802;DHT22;12898;50.520;12.152;2022-09-17T11:37:22;12.30;99.90
24802;DHT22;12898;50.520;12.152;2022-09-17T11:40:07;13.30;99.90
24802;DHT22;12898;50.520;12.152;2022-09-17T11:42:54;14.30;99.90
24802;DHT22;12898;50.520;12.152;2022-09-17T11:45:26;14.70;99.90
24802;DHT22;12898;50.520;12.152;2022-09-17T11:48:11;15.00;99.90
24802;DHT22;12898;50.520;12.152;2022-09-17T11:50:46;15.50;99.90
24802;DHT22;12898;50.520;12.152;2022-09-17T11:53:27;16.00;99.90
24802;DHT22;12898;50.520;12.152;2022-09-17T11:58:50;16.60;98.30
24802;DHT22;12898;50.520;12.152;2022-09-17T12:01:40;16.50;99.90
24802;DHT22;12898;50.520;12.152;2022-09-17T12:07:34;16.50;99.90
24802;DHT22;12898;50.520;12.152;2022-09-17T12:13:45;15.60;99.90
24802;DHT22;12898;50.520;12.152;2022-09-17T12:16:41;15.10;99.90
24802;DHT22;12898;50.520;12.152;2022-09-17T12:19:36;14.70;99.90
24802;DHT22;12898;50.520;12.152;2022-09-17T12:22:14;14.30;99.90
24802;DHT22;12898;50.520;12.152;2022-09-17T12:24:51;14.50;99.90
24802;DHT22;12898;50.520;12.152;2022-09-17T12:33:07;15.00;99.90
24802;DHT22;12898;50.520;12.152;2022-09-17T12:36:20;15.20;99.70
24802;DHT22;12898;50.520;12.152;2022-09-17T12:39:05;15.90;99.90
24802;DHT22;12898;50.520;12.152;2022-09-17T12:41:56;16.70;99.90
24802;DHT22;12898;50.520;12.152;2022-09-17T12:53:51;17.90;93.90
24802;DHT22;12898;50.520;12.152;2022-09-17T12:59:18;17.70;85.10
24802;DHT22;12898;50.520;12.152;2022-09-17T13:02:22;17.90;85.70
24802;DHT22;12898;50.520;12.152;2022-09-17T13:05:05;16.90;90.40
24802;DHT22;12898;50.520;12.152;2022-09-17T13:07:52;15.20;99.90
24802;DHT22;12898;50.520;12.152;2022-09-17T13:10:40;14.20;99.90
24802;DHT22;12898;50.520;12.152;2022-09-17T13:19:41;12.80;99.90
24802;DHT22;12898;50.520;12.152;2022-09-17T13:22:29;13.00;99.90
24802;DHT22;12898;50.520;12.152;2022-09-17T13:25:18;13.70;99.90
24802;DHT22;12898;50.520;12.152;2022-09-17T13:27:46;14.50;99.90
24802;DHT22;12898;50.520;12.152;2022-09-17T13:30:17;14.90;99.90
24802;DHT22;12898;50.520;12.152;2022-09-17T13:32:48;14.80;99.90
24802;DHT22;12898;50.520;12.152;2022-09-17T13:40:25;14.00;99.90
24802;DHT22;12898;50.520;12.152;2022-09-17T13:43:14;13.90;99.90
24802;DHT22;12898;50.520;12.152;2022-09-17T13:48:30;13.90;99.80
24802;DHT22;12898;50.520;12.152;2022-09-17T13:53:56;14.00;99.90
24802;DHT22;12898;50.520;12.152;2022-09-17T13:56:41;14.10;99.90
24802;DHT22;12898;50.520;12.152;2022-09-17T13:59:16;14.50;97.70
24802;DHT22;12898;50.520;12.152;2022-09-17T14:05:31;15.60;99.70
24802;DHT22;12898;50.520;12.152;2022-09-17T14:08:10;16.40;93.20
24802;DHT22;12898;50.520;12.152;2022-09-17T14:10:42;16.70;92.30
24802;DHT22;12898;50.520;12.152;2022-09-17T14:13:38;16.40;91.40
24802;DHT22;12898;50.520;12.152;2022-09-17T14:16:43;16.10;87.90
24802;DHT22;12898;50.520;12.152;2022-09-17T14:30:25;14.00;99.90
24802;DHT22;12898;50.520;12.152;2022-09-17T14:35:46;14.50;99.90
24802;DHT22;12898;50.520;12.152;2022-09-17T14:44:05;15.30;97.90
24802;DHT22;12898;50.520;12.152;2022-09-17T14:47:11;15.10;98.50
24802;DHT22;12898;50.520;12.152;2022-09-17T14:49:39;15.00;94.60
24802;DHT22;12898;50.520;12.152;2022-09-17T14:52:23;14.70;94.40
24802;DHT22;12898;50.520;12.152;2022-09-17T14:55:15;14.30;95.00
24802;DHT22;12898;50.520;12.152;2022-09-17T14:57:47;14.40;98.40
24802;DHT22;12898;50.520;12.152;2022-09-17T15:00:23;14.80;97.70
24802;DHT22;12898;50.520;12.152;2022-09-17T15:02:54;15.20;94.50
24802;DHT22;12898;50.520;12.152;2022-09-17T15:05:26;15.50;91.80
24802;DHT22;12898;50.520;12.152;2022-09-17T15:08:13;15.50;90.10
24802;DHT22;12898;50.520;12.152;2022-09-17T15:11:01;15.50;93.20
24802;DHT22;12898;50.520;12.152;2022-09-17T15:13:30;15.40;84.70
24802;DHT22;12898;50.520;12.152;2022-09-17T15:18:54;15.20;91.50
24802;DHT22;12898;50.520;12.152;2022-09-17T15:21:41;15.30;90.50
24802;DHT22;12898;50.520;12.152;2022-09-17T15:24:32;15.40;87.60
24802;DHT22;12898;50.520;12.152;2022-09-17T15:27:15;15.40;89.20
24802;DHT22;12898;50.520;12.152;2022-09-17T15:29:49;15.40;90.80
24802;DHT22;12898;50.520;12.152;2022-09-17T15:32:17;15.10;86.10
24802;DHT22;12898;50.520;12.152;2022-09-17T15:34:42;14.90;87.60
24802;DHT22;12898;50.520;12.152;2022-09-17T15:37:19;14.70;91.10
24802;DHT22;12898;50.520;12.152;2022-09-17T15:39:48;14.70;86.30
24802;DHT22;12898;50.520;12.152;2022-09-17T15:42:54;14.60;90.20
24802;DHT22;12898;50.520;12.152;2022-09-17T15:45:27;14.50;84.70
24802;DHT22;12898;50.520;12.152;2022-09-17T15:48:01;14.60;90.90
24802;DHT22;12898;50.520;12.152;2022-09-17T15:50:34;14.50;88.30
24802;DHT22;12898;50.520;12.152;2022-09-17T15:53:10;14.00;91.60
24802;DHT22;12898;50.520;12.152;2022-09-17T15:55:43;13.70;94.50
24802;DHT22;12898;50.520;12.152;2022-09-17T15:58:24;13.30;95.60
24802;DHT22;12898;50.520;12.152;2022-09-17T16:08:43;12.60;99.90
24802;DHT22;12898;50.520;12.152;2022-09-17T16:11:15;12.50;99.90
24802;DHT22;12898;50.520;12.152;2022-09-17T16:13:41;12.50;99.90
24802;DHT22;12898;50.520;12.152;2022-09-17T16:16:14;12.40;99.90
24802;DHT22;12898;50.520;12.152;2022-09-17T16:18:40;12.40;99.90
24802;DHT22;12898;50.520;12.152;2022-09-17T16:21:09;12.30;99.90
24802;DHT22;12898;50.520;12.152;2022-09-17T16:23:37;12.20;99.90
24802;DHT22;12898;50.520;12.152;2022-09-17T16:26:04;12.10;99.90
24802;DHT22;12898;50.520;12.152;2022-09-17T16:28:31;12.00;99.90
24802;DHT22;12898;50.520;12.152;2022-09-17T16:30:57;12.00;99.90
24802;DHT22;12898;50.520;12.152;2022-09-17T16:33:23;12.00;99.90
24802;DHT22;12898;50.520;12.152;2022-09-17T16:35:55;11.90;99.90
24802;DHT22;12898;50.520;12.152;2022-09-17T16:38:22;11.90;99.90
24802;DHT22;12898;50.520;12.152;2022-09-17T16:40:48;11.80;99.90
24802;DHT22;12898;50.520;12.152;2022-09-17T16:43:16;11.70;99.90
24802;DHT22;12898;50.520;12.152;2022-09-17T16:45:42;11.60;99.90
24802;DHT22;12898;50.520;12.152;2022-09-17T16:48:09;11.50;99.90
24802;DHT22;12898;50.520;12.152;2022-09-17T16:50:38;11.40;99.90
24802;DHT22;12898;50.520;12.152;2022-09-17T16:53:05;11.20;99.90
24802;DHT22;12898;50.520;12.152;2022-09-17T16:55:31;11.10;99.90
24802;DHT22;12898;50.520;12.152;2022-09-17T16:57:57;11.00;99.90
24802;DHT22;12898;50.520;12.152;2022-09-17T17:00:23;10.90;99.90
24802;DHT22;12898;50.520;12.152;2022-09-17T17:02:54;10.80;99.90
24802;DHT22;12898;50.520;12.152;2022-09-17T17:05:21;10.70;99.90
24802;DHT22;12898;50.520;12.152;2022-09-17T17:07:48;10.60;99.90
24802;DHT22;12898;50.520;12.152;2022-09-17T17:10:14;10.50;99.90
24802;DHT22;12898;50.520;12.152;2022-09-17T17:12:40;10.40;99.90
24802;DHT22;12898;50.520;12.152;2022-09-17T17:15:07;10.30;99.90
24802;DHT22;12898;50.520;12.152;2022-09-17T17:17:36;10.20;99.90
24802;DHT22;12898;50.520;12.152;2022-09-17T17:20:04;10.10;99.90
24802;DHT22;12898;50.520;12.152;2022-09-17T17:22:35;9.90;99.90
24802;DHT22;12898;50.520;12.152;2022-09-17T17:25:03;9.80;99.90
24802;DHT22;12898;50.520;12.152;2022-09-17T17:27:30;9.70;99.90
24802;DHT22;12898;50.520;12.152;2022-09-17T17:29:56;9.60;99.90
24802;DHT22;12898;50.520;12.152;2022-09-17T17:32:22;9.50;99.90
24802;DHT22;12898;50.520;12.152;2022-09-17T17:34:47;9.40;99.90
24802;DHT22;12898;50.520;12.152;2022-09-17T17:37:15;9.30;99.90
24802;DHT22;12898;50.520;12.152;2022-09-17T17:39:41;9.20;99.90
24802;DHT22;12898;50.520;12.152;2022-09-17T17:42:07;9.20;99.90
24802;DHT22;12898;50.520;12.152;2022-09-17T17:44:33;9.20;99.90
24802;DHT22;12898;50.520;12.152;2022-09-17T17:46:58;9.10;99.90
24802;DHT22;12898;50.520;12.152;2022-09-17T17:49:24;9.10;99.90
24802;DHT22;12898;50.520;12.152;2022-09-17T17:51:50;9.10;99.90
24802;DHT22;12898;50.520;12.152;2022-09-17T17:54:17;9.10;99.90
24802;DHT22;12898;50.520;12.152;2022-09-17T17:56:44;9.20;99.90
24802;DHT22;12898;50.520;12.152;2022-09-17T17:59:09;9.30;99.90
24802;DHT22;12898;50.520;12.152;2022-09-17T18:01:35;9.30;99.90
24802;DHT22;12898;50.520;12.152;2022-09-17T18:04:03;9.40;99.90
24802;DHT22;12898;50.520;12.152;2022-09-17T18:06:32;9.40;99.90
24802;DHT22;12898;50.520;12.152;2022-09-17T18:08:57;9.50;99.90
24802;DHT22;12898;50.520;12.152;2022-09-17T18:11:24;9.50;99.90
24802;DHT22;12898;50.520;12.152;2022-09-17T18:13:51;9.50;99.90
24802;DHT22;12898;50.520;12.152;2022-09-17T18:16:18;9.50;99.90
24802;DHT22;12898;50.520;12.152;2022-09-17T18:18:48;9.50;99.90
24802;DHT22;12898;50.520;12.152;2022-09-17T18:21:16;9.50;99.90
24802;DHT22;12898;50.520;12.152;2022-09-17T18:23:44;9.50;99.90
24802;DHT22;12898;50.520;12.152;2022-09-17T18:26:13;9.50;99.90
24802;DHT22;12898;50.520;12.152;2022-09-17T18:28:40;9.50;99.90
24802;DHT22;12898;50.520;12.152;2022-09-17T18:31:29;9.40;99.90
24802;DHT22;12898;50.520;12.152;2022-09-17T18:34:03;9.40;99.90
24802;DHT22;12898;50.520;12.152;2022-09-17T18:36:32;9.40;99.90
24802;DHT22;12898;50.520;12.152;2022-09-17T18:39:00;9.50;99.90
24802;DHT22;12898;50.520;12.152;2022-09-17T18:41:28;9.50;99.90
24802;DHT22;12898;50.520;12.152;2022-09-17T18:43:54;9.50;99.90
24802;DHT22;12898;50.520;12.152;2022-09-17T18:46:21;9.40;99.90
24802;DHT22;12898;50.520;12.152;2022-09-17T18:48:54;9.40;99.90
24802;DHT22;12898;50.520;12.152;2022-09-17T18:51:20;9.40;99.90
24802;DHT22;12898;50.520;12.152;2022-09-17T18:53:47;9.40;99.90
24802;DHT22;12898;50.520;12.152;2022-09-17T18:56:20;9.40;99.90
24802;DHT22;12898;50.520;12.152;2022-09-17T18:58:48;9.30;99.90
24802;DHT22;12898;50.520;12.152;2022-09-17T19:01:16;9.30;99.90
24802;DHT22;12898;50.520;12.152;2022-09-17T19:03:42;9.20;99.90
24802;DHT22;12898;50.520;12.152;2022-09-17T19:06:10;9.20;99.90
24802;DHT22;12898;50.520;12.152;2022-09-17T19:08:37;9.20;99.90